sensor_id;sensor_type;location;lat;lon;timestamp;P1;durP1;ratioP1;P2;durP2;ratioP2
12024;SDS011;6073;53.230;10.444;2023-11-21T00:02:13;3.08;;;2.05;;
12024;SDS011;6073;53.230;10.444;2023-11-21T00:04:38;5.13;;;2.17;;
12024;SDS011;6073;53.230;10.444;2023-11-21T00:07:04;3.65;;;2.30;;
12024;SDS011;6073;53.230;10.444;2023-11-21T00:09:30;3.20;;;2.35;;
12024;SDS011;6073;53.230;10.444;2023-11-21T00:11:56;3.50;;;1.80;;
12024;SDS011;6073;53.230;10.444;2023-11-21T00:14:24;5.68;;;2.58;;
12024;SDS011;6073;53.230;10.444;2023-11-21T00:16:49;4.18;;;2.40;;
12024;SDS011;6073;53.230;10.444;2023-11-21T00:19:15;2.95;;;2.00;;
12024;SDS011;6073;53.230;10.444;2023-11-21T00:21:41;4.60;;;2.53;;
12024;SDS011;6073;53.230;10.444;2023-11-21T00:24:09;4.35;;;2.92;;
12024;SDS011;6073;53.230;10.444;2023-11-21T00:26:35;3.97;;;2.75;;
12024;SDS011;6073;53.230;10.444;2023-11-21T00:29:02;4.80;;;2.92;;
12024;SDS011;6073;53.230;10.444;2023-11-21T00:31:28;5.30;;;3.47;;
12024;SDS011;6073;53.230;10.444;2023-11-21T00:33:55;5.07;;;3.30;;
12024;SDS011;6073;53.230;10.444;2023-11-21T00:36:21;5.30;;;3.50;;
12024;SDS011;6073;53.230;10.444;2023-11-21T00:38:47;4.90;;;3.28;;
12024;SDS011;6073;53.230;10.444;2023-11-21T00:41:13;5.13;;;3.47;;
12024;SDS011;6073;53.230;10.444;2023-11-21T00:43:39;6.55;;;3.47;;
12024;SDS011;6073;53.230;10.444;2023-11-21T00:46:05;5.93;;;3.83;;
12024;SDS011;6073;53.230;10.444;2023-11-21T00:48:32;5.45;;;3.78;;
12024;SDS011;6073;53.230;10.444;2023-11-21T00:50:58;5.57;;;3.72;;
12024;SDS011;6073;53.230;10.444;2023-11-21T00:53:24;5.20;;;3.78;;
12024;SDS011;6073;53.230;10.444;2023-11-21T00:55:49;5.18;;;3.97;;
12024;SDS011;6073;53.230;10.444;2023-11-21T00:58:17;6.07;;;4.00;;
12024;SDS011;6073;53.230;10.444;2023-11-21T01:00:42;5.85;;;3.83;;
12024;SDS011;6073;53.230;10.444;2023-11-21T01:03:08;6.63;;;4.22;;
12024;SDS011;6073;53.230;10.444;2023-11-21T01:05:34;5.15;;;4.10;;
12024;SDS011;6073;53.230;10.444;2023-11-21T01:07:59;7.00;;;4.55;;
12024;SDS011;6073;53.230;10.444;2023-11-21T01:10:25;8.30;;;4.68;;
12024;SDS011;6073;53.230;10.444;2023-11-21T01:12:51;10.00;;;5.60;;
12024;SDS011;6073;53.230;10.444;2023-11-21T01:15:16;8.55;;;5.28;;
12024;SDS011;6073;53.230;10.444;2023-11-21T01:17:42;9.48;;;5.55;;
12024;SDS011;6073;53.230;10.444;2023-11-21T01:20:07;8.40;;;5.80;;
12024;SDS011;6073;53.230;10.444;2023-11-21T01:22:37;11.63;;;6.07;;
12024;SDS011;6073;53.230;10.444;2023-11-21T01:25:04;11.13;;;6.95;;
12024;SDS011;6073;53.230;10.444;2023-11-21T01:27:32;13.25;;;7.28;;
12024;SDS011;6073;53.230;10.444;2023-11-21T01:29:59;12.48;;;7.00;;
12024;SDS011;6073;53.230;10.444;2023-11-21T01:32:25;10.43;;;6.85;;
12024;SDS011;6073;53.230;10.444;2023-11-21T01:34:50;12.95;;;7.15;;
12024;SDS011;6073;53.230;10.444;2023-11-21T01:37:16;11.27;;;6.82;;
12024;SDS011;6073;53.230;10.444;2023-11-21T01:39:42;12.15;;;7.32;;
12024;SDS011;6073;53.230;10.444;2023-11-21T01:42:09;10.05;;;6.75;;
12024;SDS011;6073;53.230;10.444;2023-11-21T01:44:36;9.02;;;5.88;;
12024;SDS011;6073;53.230;10.444;2023-11-21T01:47:01;13.63;;;6.75;;
12024;SDS011;6073;53.230;10.444;2023-11-21T01:49:31;13.13;;;7.00;;
12024;SDS011;6073;53.230;10.444;2023-11-21T01:51:58;11.65;;;7.25;;
12024;SDS011;6073;53.230;10.444;2023-11-21T01:54:24;8.90;;;6.25;;
12024;SDS011;6073;53.230;10.444;2023-11-21T01:56:50;9.75;;;6.95;;
12024;SDS011;6073;53.230;10.444;2023-11-21T01:59:19;11.25;;;7.10;;
12024;SDS011;6073;53.230;10.444;2023-11-21T02:01:48;12.02;;;7.35;;
12024;SDS011;6073;53.230;10.444;2023-11-21T02:04:18;11.77;;;7.43;;
12024;SDS011;6073;53.230;10.444;2023-11-21T02:06:46;14.23;;;7.22;;
12024;SDS011;6073;53.230;10.444;2023-11-21T02:09:11;10.75;;;6.90;;
12024;SDS011;6073;53.230;10.444;2023-11-21T02:11:40;12.68;;;7.20;;
12024;SDS011;6073;53.230;10.444;2023-11-21T02:14:05;12.43;;;7.03;;
12024;SDS011;6073;53.230;10.444;2023-11-21T02:16:33;11.88;;;7.35;;
12024;SDS011;6073;53.230;10.444;2023-11-21T02:19:00;10.25;;;7.15;;
12024;SDS011;6073;53.230;10.444;2023-11-21T02:21:26;10.23;;;6.75;;
12024;SDS011;6073;53.230;10.444;2023-11-21T02:23:52;10.80;;;6.88;;
12024;SDS011;6073;53.230;10.444;2023-11-21T02:26:18;12.35;;;7.53;;
12024;SDS011;6073;53.230;10.444;2023-11-21T02:28:45;12.55;;;7.90;;
12024;SDS011;6073;53.230;10.444;2023-11-21T02:31:11;14.32;;;8.80;;
12024;SDS011;6073;53.230;10.444;2023-11-21T02:33:37;13.95;;;8.93;;
12024;SDS011;6073;53.230;10.444;2023-11-21T02:36:03;13.60;;;8.60;;
12024;SDS011;6073;53.230;10.444;2023-11-21T02:38:29;10.63;;;7.60;;
12024;SDS011;6073;53.230;10.444;2023-11-21T02:40:57;12.18;;;7.18;;
12024;SDS011;6073;53.230;10.444;2023-11-21T02:43:25;10.05;;;7.20;;
12024;SDS011;6073;53.230;10.444;2023-11-21T02:45:51;12.77;;;7.75;;
12024;SDS011;6073;53.230;10.444;2023-11-21T02:48:16;12.10;;;7.68;;
12024;SDS011;6073;53.230;10.444;2023-11-21T02:50:42;14.02;;;7.68;;
12024;SDS011;6073;53.230;10.444;2023-11-21T02:53:08;12.15;;;7.72;;
12024;SDS011;6073;53.230;10.444;2023-11-21T02:55:36;15.25;;;8.23;;
12024;SDS011;6073;53.230;10.444;2023-11-21T02:58:02;12.13;;;7.18;;
12024;SDS011;6073;53.230;10.444;2023-11-21T03:00:28;15.10;;;7.55;;
12024;SDS011;6073;53.230;10.444;2023-11-21T03:02:55;13.05;;;7.20;;
12024;SDS011;6073;53.230;10.444;2023-11-21T03:05:21;11.45;;;7.85;;
12024;SDS011;6073;53.230;10.444;2023-11-21T03:07:46;11.52;;;7.28;;
12024;SDS011;6073;53.230;10.444;2023-11-21T03:10:12;12.57;;;7.07;;
12024;SDS011;6073;53.230;10.444;2023-11-21T03:12:38;9.85;;;6.97;;
12024;SDS011;6073;53.230;10.444;2023-11-21T03:15:05;11.55;;;7.88;;
12024;SDS011;6073;53.230;10.444;2023-11-21T03:17:31;12.27;;;7.68;;
12024;SDS011;6073;53.230;10.444;2023-11-21T03:19:58;10.13;;;7.32;;
12024;SDS011;6073;53.230;10.444;2023-11-21T03:22:24;13.02;;;7.32;;
12024;SDS011;6073;53.230;10.444;2023-11-21T03:24:50;12.35;;;6.80;;
12024;SDS011;6073;53.230;10.444;2023-11-21T03:27:15;11.63;;;7.65;;
12024;SDS011;6073;53.230;10.444;2023-11-21T03:29:41;12.52;;;8.10;;
12024;SDS011;6073;53.230;10.444;2023-11-21T03:32:07;14.70;;;7.43;;
12024;SDS011;6073;53.230;10.444;2023-11-21T03:34:32;11.25;;;6.95;;
12024;SDS011;6073;53.230;10.444;2023-11-21T03:36:58;13.32;;;6.90;;
12024;SDS011;6073;53.230;10.444;2023-11-21T03:39:23;13.63;;;7.82;;
12024;SDS011;6073;53.230;10.444;2023-11-21T03:41:50;9.88;;;6.25;;
12024;SDS011;6073;53.230;10.444;2023-11-21T03:44:16;12.05;;;6.90;;
12024;SDS011;6073;53.230;10.444;2023-11-21T03:46:42;10.30;;;7.05;;
12024;SDS011;6073;53.230;10.444;2023-11-21T03:49:09;10.05;;;7.15;;
12024;SDS011;6073;53.230;10.444;2023-11-21T03:51:35;8.93;;;6.60;;
12024;SDS011;6073;53.230;10.444;2023-11-21T03:54:01;11.20;;;6.80;;
12024;SDS011;6073;53.230;10.444;2023-11-21T03:56:28;11.77;;;7.00;;
12024;SDS011;6073;53.230;10.444;2023-11-21T03:58:53;8.93;;;6.40;;
12024;SDS011;6073;53.230;10.444;2023-11-21T04:01:20;9.98;;;7.45;;
12024;SDS011;6073;53.230;10.444;2023-11-21T04:03:46;9.70;;;6.40;;
12024;SDS011;6073;53.230;10.444;2023-11-21T04:06:12;12.77;;;7.35;;
12024;SDS011;6073;53.230;10.444;2023-11-21T04:08:38;8.98;;;6.70;;
12024;SDS011;6073;53.230;10.444;2023-11-21T04:13:35;11.35;;;6.70;;
12024;SDS011;6073;53.230;10.444;2023-11-21T04:16:00;11.13;;;6.68;;
12024;SDS011;6073;53.230;10.444;2023-11-21T04:18:28;13.13;;;6.97;;
12024;SDS011;6073;53.230;10.444;2023-11-21T04:20:53;10.60;;;6.63;;
12024;SDS011;6073;53.230;10.444;2023-11-21T04:23:19;11.00;;;6.90;;
12024;SDS011;6073;53.230;10.444;2023-11-21T04:25:47;11.32;;;6.55;;
12024;SDS011;6073;53.230;10.444;2023-11-21T04:28:13;11.07;;;6.28;;
12024;SDS011;6073;53.230;10.444;2023-11-21T04:30:38;10.80;;;6.38;;
12024;SDS011;6073;53.230;10.444;2023-11-21T04:33:04;11.30;;;6.95;;
12024;SDS011;6073;53.230;10.444;2023-11-21T04:35:30;12.07;;;7.03;;
12024;SDS011;6073;53.230;10.444;2023-11-21T04:37:55;10.25;;;6.82;;
12024;SDS011;6073;53.230;10.444;2023-11-21T04:40:22;10.52;;;7.60;;
12024;SDS011;6073;53.230;10.444;2023-11-21T04:42:48;9.60;;;6.90;;
12024;SDS011;6073;53.230;10.444;2023-11-21T04:45:13;10.18;;;6.32;;
12024;SDS011;6073;53.230;10.444;2023-11-21T04:47:39;11.70;;;6.70;;
12024;SDS011;6073;53.230;10.444;2023-11-21T04:50:04;11.23;;;7.25;;
12024;SDS011;6073;53.230;10.444;2023-11-21T04:52:31;13.60;;;7.78;;
12024;SDS011;6073;53.230;10.444;2023-11-21T04:54:58;11.23;;;7.47;;
12024;SDS011;6073;53.230;10.444;2023-11-21T04:57:24;13.45;;;7.88;;
12024;SDS011;6073;53.230;10.444;2023-11-21T04:59:49;10.50;;;6.90;;
12024;SDS011;6073;53.230;10.444;2023-11-21T05:02:15;9.75;;;6.93;;
12024;SDS011;6073;53.230;10.444;2023-11-21T05:04:41;11.50;;;6.65;;
12024;SDS011;6073;53.230;10.444;2023-11-21T05:07:07;11.32;;;7.20;;
12024;SDS011;6073;53.230;10.444;2023-11-21T05:09:33;12.77;;;7.50;;
12024;SDS011;6073;53.230;10.444;2023-11-21T05:11:59;11.48;;;7.00;;
12024;SDS011;6073;53.230;10.444;2023-11-21T05:14:25;14.02;;;6.97;;
12024;SDS011;6073;53.230;10.444;2023-11-21T05:16:50;12.63;;;7.80;;
12024;SDS011;6073;53.230;10.444;2023-11-21T05:19:16;9.30;;;6.88;;
12024;SDS011;6073;53.230;10.444;2023-11-21T05:21:42;10.25;;;7.07;;
12024;SDS011;6073;53.230;10.444;2023-11-21T05:24:08;12.00;;;7.55;;
12024;SDS011;6073;53.230;10.444;2023-11-21T05:26:34;13.50;;;8.23;;
12024;SDS011;6073;53.230;10.444;2023-11-21T05:29:00;13.55;;;8.02;;
12024;SDS011;6073;53.230;10.444;2023-11-21T05:31:25;12.55;;;8.95;;
12024;SDS011;6073;53.230;10.444;2023-11-21T05:33:52;16.83;;;9.63;;
12024;SDS011;6073;53.230;10.444;2023-11-21T05:36:18;13.80;;;8.48;;
12024;SDS011;6073;53.230;10.444;2023-11-21T05:38:43;12.38;;;8.02;;
12024;SDS011;6073;53.230;10.444;2023-11-21T05:41:09;11.35;;;7.72;;
12024;SDS011;6073;53.230;10.444;2023-11-21T05:43:38;13.48;;;7.78;;
12024;SDS011;6073;53.230;10.444;2023-11-21T05:46:04;13.27;;;9.00;;
12024;SDS011;6073;53.230;10.444;2023-11-21T05:48:31;13.32;;;8.07;;
12024;SDS011;6073;53.230;10.444;2023-11-21T05:50:57;12.88;;;7.93;;
12024;SDS011;6073;53.230;10.444;2023-11-21T05:53:23;12.32;;;8.32;;
12024;SDS011;6073;53.230;10.444;2023-11-21T05:55:49;14.88;;;8.50;;
12024;SDS011;6073;53.230;10.444;2023-11-21T05:58:15;13.15;;;8.85;;
12024;SDS011;6073;53.230;10.444;2023-11-21T06:00:40;16.15;;;8.48;;
12024;SDS011;6073;53.230;10.444;2023-11-21T06:03:06;12.88;;;8.13;;
12024;SDS011;6073;53.230;10.444;2023-11-21T06:05:32;15.20;;;8.63;;
12024;SDS011;6073;53.230;10.444;2023-11-21T06:07:58;14.50;;;7.82;;
12024;SDS011;6073;53.230;10.444;2023-11-21T06:10:24;11.27;;;7.78;;
12024;SDS011;6073;53.230;10.444;2023-11-21T06:12:50;11.85;;;7.65;;
12024;SDS011;6073;53.230;10.444;2023-11-21T06:15:16;11.35;;;7.63;;
12024;SDS011;6073;53.230;10.444;2023-11-21T06:17:44;11.40;;;7.40;;
12024;SDS011;6073;53.230;10.444;2023-11-21T06:20:14;14.55;;;8.65;;
12024;SDS011;6073;53.230;10.444;2023-11-21T06:22:41;14.57;;;7.78;;
12024;SDS011;6073;53.230;10.444;2023-11-21T06:25:08;13.23;;;7.78;;
12024;SDS011;6073;53.230;10.444;2023-11-21T06:27:36;10.70;;;7.22;;
12024;SDS011;6073;53.230;10.444;2023-11-21T06:30:05;13.18;;;7.57;;
12024;SDS011;6073;53.230;10.444;2023-11-21T06:32:34;11.60;;;7.65;;
12024;SDS011;6073;53.230;10.444;2023-11-21T06:35:01;12.25;;;8.05;;
12024;SDS011;6073;53.230;10.444;2023-11-21T06:37:28;12.90;;;8.73;;
12024;SDS011;6073;53.230;10.444;2023-11-21T06:39:54;11.98;;;8.13;;
12024;SDS011;6073;53.230;10.444;2023-11-21T06:42:21;15.07;;;8.65;;
12024;SDS011;6073;53.230;10.444;2023-11-21T06:44:48;14.07;;;7.85;;
12024;SDS011;6073;53.230;10.444;2023-11-21T06:47:16;12.43;;;7.38;;
12024;SDS011;6073;53.230;10.444;2023-11-21T06:49:49;11.65;;;7.13;;
12024;SDS011;6073;53.230;10.444;2023-11-21T06:52:15;10.50;;;7.35;;
12024;SDS011;6073;53.230;10.444;2023-11-21T06:54:41;14.30;;;7.40;;
12024;SDS011;6073;53.230;10.444;2023-11-21T06:57:06;14.07;;;8.13;;
12024;SDS011;6073;53.230;10.444;2023-11-21T06:59:32;12.82;;;7.28;;
12024;SDS011;6073;53.230;10.444;2023-11-21T07:01:58;13.13;;;7.32;;
12024;SDS011;6073;53.230;10.444;2023-11-21T07:04:23;11.13;;;7.45;;
12024;SDS011;6073;53.230;10.444;2023-11-21T07:06:50;10.25;;;6.90;;
12024;SDS011;6073;53.230;10.444;2023-11-21T07:09:18;9.15;;;6.68;;
12024;SDS011;6073;53.230;10.444;2023-11-21T07:11:47;12.38;;;7.57;;
12024;SDS011;6073;53.230;10.444;2023-11-21T07:14:13;13.98;;;7.30;;
12024;SDS011;6073;53.230;10.444;2023-11-21T07:16:39;12.50;;;7.50;;
12024;SDS011;6073;53.230;10.444;2023-11-21T07:19:04;12.52;;;7.53;;
12024;SDS011;6073;53.230;10.444;2023-11-21T07:21:33;9.63;;;6.95;;
12024;SDS011;6073;53.230;10.444;2023-11-21T07:24:00;9.32;;;6.45;;
12024;SDS011;6073;53.230;10.444;2023-11-21T07:26:28;10.40;;;6.68;;
12024;SDS011;6073;53.230;10.444;2023-11-21T07:28:55;12.13;;;7.57;;
12024;SDS011;6073;53.230;10.444;2023-11-21T07:31:21;14.43;;;8.07;;
12024;SDS011;6073;53.230;10.444;2023-11-21T07:33:47;10.90;;;6.60;;
12024;SDS011;6073;53.230;10.444;2023-11-21T07:36:13;11.23;;;7.32;;
12024;SDS011;6073;53.230;10.444;2023-11-21T07:38:39;11.98;;;7.63;;
12024;SDS011;6073;53.230;10.444;2023-11-21T07:41:05;11.43;;;7.30;;
12024;SDS011;6073;53.230;10.444;2023-11-21T07:43:32;11.90;;;7.68;;
12024;SDS011;6073;53.230;10.444;2023-11-21T07:46:00;13.40;;;7.65;;
12024;SDS011;6073;53.230;10.444;2023-11-21T07:48:29;12.02;;;7.88;;
12024;SDS011;6073;53.230;10.444;2023-11-21T07:50:56;15.70;;;8.55;;
12024;SDS011;6073;53.230;10.444;2023-11-21T07:53:23;9.90;;;6.78;;
12024;SDS011;6073;53.230;10.444;2023-11-21T07:55:53;11.75;;;6.82;;
12024;SDS011;6073;53.230;10.444;2023-11-21T07:58:19;11.55;;;7.30;;
12024;SDS011;6073;53.230;10.444;2023-11-21T08:00:45;12.23;;;7.53;;
12024;SDS011;6073;53.230;10.444;2023-11-21T08:03:11;12.68;;;7.70;;
12024;SDS011;6073;53.230;10.444;2023-11-21T08:05:38;12.57;;;7.47;;
12024;SDS011;6073;53.230;10.444;2023-11-21T08:08:04;12.07;;;7.20;;
12024;SDS011;6073;53.230;10.444;2023-11-21T08:10:29;10.55;;;7.53;;
12024;SDS011;6073;53.230;10.444;2023-11-21T08:12:55;13.27;;;7.38;;
12024;SDS011;6073;53.230;10.444;2023-11-21T08:15:20;12.30;;;7.50;;
12024;SDS011;6073;53.230;10.444;2023-11-21T08:17:46;12.60;;;8.15;;
12024;SDS011;6073;53.230;10.444;2023-11-21T08:20:13;12.00;;;7.63;;
12024;SDS011;6073;53.230;10.444;2023-11-21T08:22:41;9.95;;;7.25;;
12024;SDS011;6073;53.230;10.444;2023-11-21T08:25:07;11.18;;;7.43;;
12024;SDS011;6073;53.230;10.444;2023-11-21T08:27:33;12.40;;;7.82;;
12024;SDS011;6073;53.230;10.444;2023-11-21T08:29:59;10.88;;;7.07;;
12024;SDS011;6073;53.230;10.444;2023-11-21T08:32:25;11.95;;;8.25;;
12024;SDS011;6073;53.230;10.444;2023-11-21T08:34:51;12.95;;;8.27;;
12024;SDS011;6073;53.230;10.444;2023-11-21T08:37:17;13.32;;;8.15;;
12024;SDS011;6073;53.230;10.444;2023-11-21T08:39:47;12.35;;;7.45;;
12024;SDS011;6073;53.230;10.444;2023-11-21T08:42:13;12.02;;;8.38;;
12024;SDS011;6073;53.230;10.444;2023-11-21T08:44:39;14.70;;;7.88;;
12024;SDS011;6073;53.230;10.444;2023-11-21T08:47:05;14.07;;;7.88;;
12024;SDS011;6073;53.230;10.444;2023-11-21T08:49:31;13.30;;;7.25;;
12024;SDS011;6073;53.230;10.444;2023-11-21T08:51:57;11.57;;;7.70;;
12024;SDS011;6073;53.230;10.444;2023-11-21T08:54:24;10.38;;;7.20;;
12024;SDS011;6073;53.230;10.444;2023-11-21T08:56:50;11.90;;;7.72;;
12024;SDS011;6073;53.230;10.444;2023-11-21T08:59:19;11.73;;;7.20;;
12024;SDS011;6073;53.230;10.444;2023-11-21T09:01:45;10.10;;;6.85;;
12024;SDS011;6073;53.230;10.444;2023-11-21T09:04:11;12.20;;;7.68;;
12024;SDS011;6073;53.230;10.444;2023-11-21T09:06:37;11.00;;;7.10;;
12024;SDS011;6073;53.230;10.444;2023-11-21T09:09:04;11.20;;;7.30;;
12024;SDS011;6073;53.230;10.444;2023-11-21T09:11:31;9.85;;;7.13;;
12024;SDS011;6073;53.230;10.444;2023-11-21T09:13:58;8.43;;;6.47;;
12024;SDS011;6073;53.230;10.444;2023-11-21T09:16:24;12.00;;;6.85;;
12024;SDS011;6073;53.230;10.444;2023-11-21T09:18:50;11.90;;;6.88;;
12024;SDS011;6073;53.230;10.444;2023-11-21T09:21:15;10.90;;;7.15;;
12024;SDS011;6073;53.230;10.444;2023-11-21T09:23:42;10.25;;;7.13;;
12024;SDS011;6073;53.230;10.444;2023-11-21T09:26:11;8.45;;;6.40;;
12024;SDS011;6073;53.230;10.444;2023-11-21T09:28:37;8.05;;;6.25;;
12024;SDS011;6073;53.230;10.444;2023-11-21T09:31:03;10.77;;;7.35;;
12024;SDS011;6073;53.230;10.444;2023-11-21T09:33:29;9.63;;;6.60;;
12024;SDS011;6073;53.230;10.444;2023-11-21T09:35:56;9.82;;;6.07;;
12024;SDS011;6073;53.230;10.444;2023-11-21T09:38:22;7.93;;;5.82;;
12024;SDS011;6073;53.230;10.444;2023-11-21T09:40:48;9.23;;;6.43;;
12024;SDS011;6073;53.230;10.444;2023-11-21T09:43:18;8.52;;;6.53;;
12024;SDS011;6073;53.230;10.444;2023-11-21T09:45:47;8.88;;;5.40;;
12024;SDS011;6073;53.230;10.444;2023-11-21T09:48:15;9.25;;;5.03;;
12024;SDS011;6073;53.230;10.444;2023-11-21T09:50:42;9.32;;;5.63;;
12024;SDS011;6073;53.230;10.444;2023-11-21T09:55:46;9.23;;;6.22;;
12024;SDS011;6073;53.230;10.444;2023-11-21T09:58:13;11.98;;;6.07;;
12024;SDS011;6073;53.230;10.444;2023-11-21T10:00:42;9.07;;;5.50;;
12024;SDS011;6073;53.230;10.444;2023-11-21T10:03:09;9.50;;;5.75;;
12024;SDS011;6073;53.230;10.444;2023-11-21T10:05:36;7.97;;;5.80;;
12024;SDS011;6073;53.230;10.444;2023-11-21T10:08:03;7.10;;;5.68;;
12024;SDS011;6073;53.230;10.444;2023-11-21T10:10:31;8.40;;;5.43;;
12024;SDS011;6073;53.230;10.444;2023-11-21T10:12:58;9.68;;;5.63;;
12024;SDS011;6073;53.230;10.444;2023-11-21T10:15:28;6.03;;;4.35;;
12024;SDS011;6073;53.230;10.444;2023-11-21T10:17:55;8.70;;;5.38;;
12024;SDS011;6073;53.230;10.444;2023-11-21T10:20:21;6.95;;;5.43;;
12024;SDS011;6073;53.230;10.444;2023-11-21T10:22:49;8.00;;;5.40;;
12024;SDS011;6073;53.230;10.444;2023-11-21T10:25:15;7.03;;;4.80;;
12024;SDS011;6073;53.230;10.444;2023-11-21T10:27:43;6.60;;;4.78;;
12024;SDS011;6073;53.230;10.444;2023-11-21T10:30:11;7.00;;;4.55;;
12024;SDS011;6073;53.230;10.444;2023-11-21T10:32:41;5.95;;;4.47;;
12024;SDS011;6073;53.230;10.444;2023-11-21T10:35:08;7.72;;;4.85;;
12024;SDS011;6073;53.230;10.444;2023-11-21T10:37:38;7.90;;;4.82;;
12024;SDS011;6073;53.230;10.444;2023-11-21T10:40:11;7.15;;;4.78;;
12024;SDS011;6073;53.230;10.444;2023-11-21T10:42:40;7.45;;;4.95;;
12024;SDS011;6073;53.230;10.444;2023-11-21T10:45:07;7.13;;;4.78;;
12024;SDS011;6073;53.230;10.444;2023-11-21T10:47:40;7.03;;;4.25;;
12024;SDS011;6073;53.230;10.444;2023-11-21T10:50:06;5.90;;;4.78;;
12024;SDS011;6073;53.230;10.444;2023-11-21T10:52:35;7.55;;;4.28;;
12024;SDS011;6073;53.230;10.444;2023-11-21T10:55:10;6.13;;;4.53;;
12024;SDS011;6073;53.230;10.444;2023-11-21T10:57:41;5.75;;;4.13;;
12024;SDS011;6073;53.230;10.444;2023-11-21T11:00:08;5.32;;;3.83;;
12024;SDS011;6073;53.230;10.444;2023-11-21T11:02:37;5.35;;;3.55;;
12024;SDS011;6073;53.230;10.444;2023-11-21T11:05:04;6.00;;;4.22;;
12024;SDS011;6073;53.230;10.444;2023-11-21T11:07:31;5.82;;;3.90;;
12024;SDS011;6073;53.230;10.444;2023-11-21T11:09:59;5.15;;;3.85;;
12024;SDS011;6073;53.230;10.444;2023-11-21T11:12:25;5.90;;;3.75;;
12024;SDS011;6073;53.230;10.444;2023-11-21T11:14:51;5.47;;;3.55;;
12024;SDS011;6073;53.230;10.444;2023-11-21T11:17:17;6.10;;;3.75;;
12024;SDS011;6073;53.230;10.444;2023-11-21T11:19:45;4.03;;;3.47;;
12024;SDS011;6073;53.230;10.444;2023-11-21T11:25:38;3.58;;;3.00;;
12024;SDS011;6073;53.230;10.444;2023-11-21T11:36:09;4.25;;;3.40;;
12024;SDS011;6073;53.230;10.444;2023-11-21T11:38:59;4.60;;;3.80;;
12024;SDS011;6073;53.230;10.444;2023-11-21T11:41:27;4.07;;;3.17;;
12024;SDS011;6073;53.230;10.444;2023-11-21T11:43:57;3.80;;;3.30;;
12024;SDS011;6073;53.230;10.444;2023-11-21T11:49:24;7.93;;;3.72;;
12024;SDS011;6073;53.230;10.444;2023-11-21T11:54:55;6.32;;;3.35;;
12024;SDS011;6073;53.230;10.444;2023-11-21T11:57:24;3.92;;;3.00;;
12024;SDS011;6073;53.230;10.444;2023-11-21T12:00:10;4.43;;;3.47;;
12024;SDS011;6073;53.230;10.444;2023-11-21T12:02:37;3.05;;;2.60;;
12024;SDS011;6073;53.230;10.444;2023-11-21T12:05:08;3.35;;;2.95;;
12024;SDS011;6073;53.230;10.444;2023-11-21T12:10:13;4.50;;;2.83;;
12024;SDS011;6073;53.230;10.444;2023-11-21T12:12:43;6.35;;;3.15;;
12024;SDS011;6073;53.230;10.444;2023-11-21T12:15:13;3.95;;;3.10;;
12024;SDS011;6073;53.230;10.444;2023-11-21T12:17:41;3.95;;;3.45;;
12024;SDS011;6073;53.230;10.444;2023-11-21T12:20:08;5.50;;;3.42;;
12024;SDS011;6073;53.230;10.444;2023-11-21T12:22:49;5.00;;;3.35;;
12024;SDS011;6073;53.230;10.444;2023-11-21T12:25:17;5.68;;;3.92;;
12024;SDS011;6073;53.230;10.444;2023-11-21T12:27:52;5.68;;;3.90;;
12024;SDS011;6073;53.230;10.444;2023-11-21T12:30:21;5.80;;;4.00;;
12024;SDS011;6073;53.230;10.444;2023-11-21T12:32:49;4.43;;;3.90;;
12024;SDS011;6073;53.230;10.444;2023-11-21T12:35:19;4.90;;;3.35;;
12024;SDS011;6073;53.230;10.444;2023-11-21T12:37:46;4.95;;;3.42;;
12024;SDS011;6073;53.230;10.444;2023-11-21T12:40:13;5.05;;;3.25;;
12024;SDS011;6073;53.230;10.444;2023-11-21T12:42:47;4.30;;;3.15;;
12024;SDS011;6073;53.230;10.444;2023-11-21T12:50:24;6.20;;;3.78;;
12024;SDS011;6073;53.230;10.444;2023-11-21T12:53:00;4.63;;;3.70;;
12024;SDS011;6073;53.230;10.444;2023-11-21T12:55:35;6.72;;;3.55;;
12024;SDS011;6073;53.230;10.444;2023-11-21T12:58:06;4.88;;;3.72;;
12024;SDS011;6073;53.230;10.444;2023-11-21T13:00:36;6.00;;;3.97;;
12024;SDS011;6073;53.230;10.444;2023-11-21T13:03:05;3.45;;;3.00;;
12024;SDS011;6073;53.230;10.444;2023-11-21T13:05:33;7.90;;;4.22;;
12024;SDS011;6073;53.230;10.444;2023-11-21T13:08:03;5.75;;;3.40;;
12024;SDS011;6073;53.230;10.444;2023-11-21T13:10:32;3.95;;;3.28;;
12024;SDS011;6073;53.230;10.444;2023-11-21T13:13:01;3.85;;;2.90;;
12024;SDS011;6073;53.230;10.444;2023-11-21T13:15:30;4.75;;;3.35;;
12024;SDS011;6073;53.230;10.444;2023-11-21T13:17:57;3.35;;;2.80;;
12024;SDS011;6073;53.230;10.444;2023-11-21T13:20:26;4.20;;;3.80;;
12024;SDS011;6073;53.230;10.444;2023-11-21T13:22:53;3.95;;;2.95;;
12024;SDS011;6073;53.230;10.444;2023-11-21T13:25:24;4.53;;;3.25;;
12024;SDS011;6073;53.230;10.444;2023-11-21T13:27:52;4.97;;;3.38;;
12024;SDS011;6073;53.230;10.444;2023-11-21T13:30:21;4.78;;;3.63;;
12024;SDS011;6073;53.230;10.444;2023-11-21T13:32:51;5.65;;;3.95;;
12024;SDS011;6073;53.230;10.444;2023-11-21T13:35:18;5.00;;;3.88;;
12024;SDS011;6073;53.230;10.444;2023-11-21T13:37:51;3.85;;;3.35;;
12024;SDS011;6073;53.230;10.444;2023-11-21T13:40:21;4.25;;;3.30;;
12024;SDS011;6073;53.230;10.444;2023-11-21T13:42:50;5.45;;;3.30;;
12024;SDS011;6073;53.230;10.444;2023-11-21T13:45:20;6.05;;;3.80;;
12024;SDS011;6073;53.230;10.444;2023-11-21T13:47:48;5.30;;;3.67;;
12024;SDS011;6073;53.230;10.444;2023-11-21T13:50:16;5.97;;;4.35;;
12024;SDS011;6073;53.230;10.444;2023-11-21T13:52:47;7.18;;;4.50;;
12024;SDS011;6073;53.230;10.444;2023-11-21T13:55:13;7.15;;;4.95;;
12024;SDS011;6073;53.230;10.444;2023-11-21T13:57:41;6.68;;;4.82;;
12024;SDS011;6073;53.230;10.444;2023-11-21T14:00:14;6.38;;;4.63;;
12024;SDS011;6073;53.230;10.444;2023-11-21T14:03:00;6.47;;;4.40;;
12024;SDS011;6073;53.230;10.444;2023-11-21T14:05:30;5.43;;;4.13;;
12024;SDS011;6073;53.230;10.444;2023-11-21T14:07:58;7.20;;;4.90;;
12024;SDS011;6073;53.230;10.444;2023-11-21T14:10:30;5.75;;;4.20;;
12024;SDS011;6073;53.230;10.444;2023-11-21T14:13:07;5.18;;;3.75;;
12024;SDS011;6073;53.230;10.444;2023-11-21T14:15:35;5.82;;;4.45;;
12024;SDS011;6073;53.230;10.444;2023-11-21T14:18:07;5.90;;;3.55;;
12024;SDS011;6073;53.230;10.444;2023-11-21T14:20:35;5.57;;;3.40;;
12024;SDS011;6073;53.230;10.444;2023-11-21T14:23:02;4.95;;;3.35;;
12024;SDS011;6073;53.230;10.444;2023-11-21T14:25:30;4.03;;;3.38;;
12024;SDS011;6073;53.230;10.444;2023-11-21T14:27:57;4.65;;;3.65;;
12024;SDS011;6073;53.230;10.444;2023-11-21T14:30:22;4.38;;;3.70;;
12024;SDS011;6073;53.230;10.444;2023-11-21T14:32:48;4.88;;;3.20;;
12024;SDS011;6073;53.230;10.444;2023-11-21T14:35:15;5.80;;;3.88;;
12024;SDS011;6073;53.230;10.444;2023-11-21T14:37:41;5.13;;;3.90;;
12024;SDS011;6073;53.230;10.444;2023-11-21T14:40:08;6.05;;;3.50;;
12024;SDS011;6073;53.230;10.444;2023-11-21T14:42:34;5.60;;;3.90;;
12024;SDS011;6073;53.230;10.444;2023-11-21T14:45:02;4.55;;;3.78;;
12024;SDS011;6073;53.230;10.444;2023-11-21T14:47:31;5.55;;;3.92;;
12024;SDS011;6073;53.230;10.444;2023-11-21T14:49:59;4.20;;;3.30;;
12024;SDS011;6073;53.230;10.444;2023-11-21T14:52:31;7.15;;;3.60;;
12024;SDS011;6073;53.230;10.444;2023-11-21T14:55:03;4.22;;;3.35;;
12024;SDS011;6073;53.230;10.444;2023-11-21T14:57:48;3.42;;;3.13;;
12024;SDS011;6073;53.230;10.444;2023-11-21T15:00:17;4.88;;;3.70;;
12024;SDS011;6073;53.230;10.444;2023-11-21T15:03:16;5.57;;;2.78;;
12024;SDS011;6073;53.230;10.444;2023-11-21T15:05:57;4.82;;;3.67;;
12024;SDS011;6073;53.230;10.444;2023-11-21T15:08:24;5.38;;;3.40;;
12024;SDS011;6073;53.230;10.444;2023-11-21T15:10:57;4.03;;;3.35;;
12024;SDS011;6073;53.230;10.444;2023-11-21T15:13:22;7.55;;;3.85;;